Time;durP1;ratioP1;P1;durP2;ratioP2;P2;SDS_P1;SDS_P2;PMS_P1;PMS_P2;Temp;Humidity;BMP_temperature;BMP_pressure;BME280_temperature;BME280_humidity;BME280_pressure;Samples;Min_cycle;Max_cycle;Signal;HPM_P1;HPM_P2
2022/04/25 00:00:50;;;;;;;;;;;12.90;99.90;;;;;;5092215;28;19912;-73
2022/04/25 00:03:15;;;;;;;;;;;12.90;99.90;;;;;;5092435;28;20283;-73
2022/04/25 00:05:40;;;;;;;;;;;12.80;99.90;;;;;;5074093;28;19999;-73
2022/04/25 00:08:06;;;;;;;;;;;13.10;99.90;;;;;;5074002;28;20220;-73
2022/04/25 00:10:32;;;;;;;;;;;12.90;99.90;;;;;;5092158;28;20246;-73
2022/04/25 00:12:58;;;;;;;;;;;13.00;99.90;;;;;;5092189;28;19959;-73
2022/04/25 00:15:25;;;;;;;;;;;13.00;99.90;;;;;;5092508;28;19967;-72
2022/04/25 00:17:50;;;;;;;;;;;13.60;99.90;;;;;;5092230;28;19912;-72
2022/04/25 00:20:16;;;;;;;;;;;13.00;99.90;;;;;;5074027;28;20015;-72
2022/04/25 00:22:41;;;;;;;;;;;13.00;99.90;;;;;;5092082;28;19969;-72
2022/04/25 00:25:07;;;;;;;;;;;13.00;99.90;;;;;;5092376;28;20395;-73
2022/04/25 00:27:32;;;;;;;;;;;12.90;99.90;;;;;;5091794;28;19908;-73
2022/04/25 00:29:58;;;;;;;;;;;12.80;99.90;;;;;;5092294;28;20352;-73
2022/04/25 00:32:24;;;;;;;;;;;12.80;99.90;;;;;;5091739;28;19908;-73
2022/04/25 00:34:50;;;;;;;;;;;12.70;99.90;;;;;;5092178;28;19916;-73
2022/04/25 00:37:15;;;;;;;;;;;12.70;99.90;;;;;;5091801;28;19935;-72
2022/04/25 00:39:41;;;;;;;;;;;12.60;99.90;;;;;;5073332;28;20301;-73
2022/04/25 00:42:06;;;;;;;;;;;12.60;99.90;;;;;;5073439;28;19916;-72
2022/04/25 00:44:32;;;;;;;;;;;12.60;99.90;;;;;;5072932;28;20034;-73
2022/04/25 00:46:59;;;;;;;;;;;12.60;99.90;;;;;;5091531;28;20260;-73
2022/04/25 00:49:25;;;;;;;;;;;12.50;99.90;;;;;;5091875;28;19943;-72
2022/04/25 00:51:53;;;;;;;;;;;12.50;99.90;;;;;;5091686;28;19908;-72
2022/04/25 00:54:20;;;;;;;;;;;12.40;99.90;;;;;;5091776;28;20364;-72
2022/04/25 00:56:46;;;;;;;;;;;12.30;99.90;;;;;;5091477;28;20280;-72
2022/04/25 00:59:14;;;;;;;;;;;12.40;99.90;;;;;;5091728;28;19927;-73
2022/04/25 01:01:40;;;;;;;;;;;12.40;99.90;;;;;;5091281;28;19909;-73
2022/04/25 01:04:05;;;;;;;;;;;12.40;99.90;;;;;;5091663;28;19939;-73
2022/04/25 01:06:30;;;;;;;;;;;12.30;99.90;;;;;;5091159;28;19958;-72
2022/04/25 01:08:56;;;;;;;;;;;12.30;99.90;;;;;;5073306;28;20330;-72
2022/04/25 01:11:22;;;;;;;;;;;12.30;99.90;;;;;;5090986;28;19994;-73
2022/04/25 01:13:47;;;;;;;;;;;12.30;99.90;;;;;;5073232;28;20276;-73
2022/04/25 01:16:13;;;;;;;;;;;12.40;99.90;;;;;;5073094;28;19912;-72
2022/04/25 01:18:39;;;;;;;;;;;12.40;99.90;;;;;;5073142;28;20388;-73
2022/04/25 01:21:07;;;;;;;;;;;12.30;99.90;;;;;;5091217;28;19920;-73
2022/04/25 01:29:01;;;;;;;;;;;12.30;99.90;;;;;;5091400;28;19923;-73
2022/04/25 01:31:27;;;;;;;;;;;12.30;99.90;;;;;;5090923;28;19908;-72
2022/04/25 01:33:53;;;;;;;;;;;12.20;99.90;;;;;;5073043;28;20001;-72
2022/04/25 01:36:22;;;;;;;;;;;12.10;99.90;;;;;;5072965;28;19923;-73
2022/04/25 01:38:48;;;;;;;;;;;12.00;99.90;;;;;;5091195;28;19912;-73
2022/04/25 01:41:13;;;;;;;;;;;11.90;99.90;;;;;;5072842;28;20398;-73
2022/04/25 01:43:39;;;;;;;;;;;11.90;99.90;;;;;;5091006;28;19922;-73
2022/04/25 01:46:04;;;;;;;;;;;11.80;99.90;;;;;;5090967;28;20008;-73
2022/04/25 01:48:30;;;;;;;;;;;11.80;99.90;;;;;;5072658;28;19908;-73
2022/04/25 01:50:56;;;;;;;;;;;11.80;99.90;;;;;;5072564;28;19966;-73
2022/04/25 01:53:21;;;;;;;;;;;11.70;99.90;;;;;;5090900;28;19923;-73
2022/04/25 01:55:47;;;;;;;;;;;11.60;99.90;;;;;;5073736;28;19917;-73
2022/04/25 01:58:13;;;;;;;;;;;11.60;99.90;;;;;;5076560;28;19908;-73
2022/04/25 02:00:38;;;;;;;;;;;11.60;99.90;;;;;;5094838;28;19924;-73
2022/04/25 02:03:05;;;;;;;;;;;11.60;99.90;;;;;;5076411;28;19915;-73
2022/04/25 02:05:31;;;;;;;;;;;11.60;99.90;;;;;;5094745;28;19920;-73
2022/04/25 02:07:56;;;;;;;;;;;11.50;99.90;;;;;;5094604;28;20289;-73
2022/04/25 02:10:21;;;;;;;;;;;11.50;99.90;;;;;;5094639;28;20352;-72
2022/04/25 02:12:47;;;;;;;;;;;11.50;99.90;;;;;;5076188;28;19927;-73
2022/04/25 02:15:13;;;;;;;;;;;11.50;99.90;;;;;;5094494;28;20380;-73
2022/04/25 02:17:39;;;;;;;;;;;11.40;99.90;;;;;;5094437;28;19912;-73
2022/04/25 02:20:05;;;;;;;;;;;11.40;99.90;;;;;;5076244;28;20352;-73
2022/04/25 02:22:31;;;;;;;;;;;11.40;99.90;;;;;;5076194;28;19912;-73
2022/04/25 02:24:57;;;;;;;;;;;11.40;99.90;;;;;;5094422;28;20368;-73
2022/04/25 02:27:23;;;;;;;;;;;11.30;99.90;;;;;;5094636;28;19916;-73
2022/04/25 02:29:53;;;;;;;;;;;11.20;99.90;;;;;;5094361;28;19916;-73
2022/04/25 02:32:19;;;;;;;;;;;11.20;99.90;;;;;;5093950;28;20334;-73
2022/04/25 02:34:44;;;;;;;;;;;11.30;99.90;;;;;;5094127;28;19908;-73
2022/04/25 02:37:10;;;;;;;;;;;11.40;99.90;;;;;;5094541;28;19920;-73
2022/04/25 02:39:35;;;;;;;;;;;11.40;99.90;;;;;;5075663;28;20273;-73
2022/04/25 02:42:01;;;;;;;;;;;11.50;99.90;;;;;;5093918;28;19962;-72
2022/04/25 02:44:26;;;;;;;;;;;11.50;99.90;;;;;;5093938;28;20280;-72
2022/04/25 02:46:52;;;;;;;;;;;11.50;99.90;;;;;;5093800;28;20006;-73
2022/04/25 02:49:17;;;;;;;;;;;11.60;99.90;;;;;;5093853;28;19911;-73
2022/04/25 02:51:45;;;;;;;;;;;11.80;99.90;;;;;;5094031;28;19923;-73
2022/04/25 02:54:10;;;;;;;;;;;11.60;99.90;;;;;;5093800;28;20356;-73
2022/04/25 02:56:36;;;;;;;;;;;11.50;99.90;;;;;;5075585;28;19923;-72
2022/04/25 02:59:01;;;;;;;;;;;11.50;99.90;;;;;;5075500;28;20355;-73
2022/04/25 03:01:27;;;;;;;;;;;11.50;99.90;;;;;;5093380;28;19931;-73
2022/04/25 03:03:52;;;;;;;;;;;11.50;99.90;;;;;;5075356;28;19908;-73
2022/04/25 03:06:18;;;;;;;;;;;11.50;99.90;;;;;;5093807;28;20404;-73
2022/04/25 03:08:43;;;;;;;;;;;11.40;99.90;;;;;;5093130;28;20367;-73
2022/04/25 03:11:09;;;;;;;;;;;11.40;99.90;;;;;;5093350;28;19922;-72
2022/04/25 03:13:35;;;;;;;;;;;11.40;99.90;;;;;;5093363;28;19908;-73
2022/04/25 03:16:01;;;;;;;;;;;11.30;99.90;;;;;;5093734;28;20112;-73
2022/04/25 03:18:29;;;;;;;;;;;11.40;99.90;;;;;;5075073;28;19908;-73
2022/04/25 03:20:55;;;;;;;;;;;11.40;99.90;;;;;;5075142;28;19924;-73
2022/04/25 03:23:21;;;;;;;;;;;11.50;99.90;;;;;;5075064;28;19912;-74
2022/04/25 03:25:47;;;;;;;;;;;11.50;99.90;;;;;;5093311;28;19920;-73
2022/04/25 03:28:13;;;;;;;;;;;11.60;99.90;;;;;;5093007;28;20540;-72
2022/04/25 03:30:38;;;;;;;;;;;11.60;99.90;;;;;;5093076;28;19920;-72
2022/04/25 03:33:04;;;;;;;;;;;11.70;99.90;;;;;;5092942;28;19931;-72
2022/04/25 03:35:33;;;;;;;;;;;11.60;99.90;;;;;;5074784;28;19916;-72
2022/04/25 03:37:58;;;;;;;;;;;11.50;99.90;;;;;;5092992;28;19912;-72
2022/04/25 03:40:24;;;;;;;;;;;11.50;99.90;;;;;;5093036;28;19989;-73
2022/04/25 03:42:49;;;;;;;;;;;11.60;99.90;;;;;;5092862;28;20007;-72
2022/04/25 03:45:16;;;;;;;;;;;11.60;99.90;;;;;;5092668;28;20303;-71
2022/04/25 03:47:42;;;;;;;;;;;11.50;99.90;;;;;;5074573;28;19999;-73
2022/04/25 03:50:08;;;;;;;;;;;11.60;99.90;;;;;;5092532;28;20015;-72
2022/04/25 03:52:37;;;;;;;;;;;11.60;99.90;;;;;;5092681;28;20326;-73
2022/04/25 03:57:51;;;;;;;;;;;11.50;99.90;;;;;;5092674;28;19914;-73
2022/04/25 04:00:17;;;;;;;;;;;11.50;99.90;;;;;;5092375;28;19912;-73
2022/04/25 04:02:43;;;;;;;;;;;11.50;99.90;;;;;;5092445;28;19922;-73
2022/04/25 04:05:09;;;;;;;;;;;11.50;99.90;;;;;;5092218;28;20178;-73
2022/04/25 04:07:34;;;;;;;;;;;11.50;99.90;;;;;;5092612;28;20260;-73
2022/04/25 04:10:00;;;;;;;;;;;11.50;99.90;;;;;;5092465;28;20310;-73
2022/04/25 04:12:31;;;;;;;;;;;11.60;99.90;;;;;;5092248;28;19924;-73
2022/04/25 04:14:56;;;;;;;;;;;11.70;99.90;;;;;;5092523;28;20007;-73
2022/04/25 04:17:22;;;;;;;;;;;11.80;99.90;;;;;;5074200;28;19942;-73
2022/04/25 04:19:48;;;;;;;;;;;11.90;99.90;;;;;;5091211;28;19916;-73
2022/04/25 04:22:14;;;;;;;;;;;11.90;99.90;;;;;;5092707;28;20004;-73
2022/04/25 04:24:39;;;;;;;;;;;11.80;99.90;;;;;;5092340;28;19908;-73
2022/04/25 04:27:05;;;;;;;;;;;11.80;99.90;;;;;;5092006;28;19923;-73
2022/04/25 04:29:31;;;;;;;;;;;12.00;99.90;;;;;;5091992;28;19908;-72
2022/04/25 04:32:01;;;;;;;;;;;12.10;99.90;;;;;;5092313;28;19924;-73
2022/04/25 04:34:27;;;;;;;;;;;12.20;99.90;;;;;;5091913;28;20062;-73
2022/04/25 04:36:53;;;;;;;;;;;12.10;99.90;;;;;;5092237;28;19983;-73
2022/04/25 04:39:18;;;;;;;;;;;12.20;99.90;;;;;;5073516;28;19982;-74
2022/04/25 04:41:44;;;;;;;;;;;12.20;99.90;;;;;;5073554;28;20321;-73
2022/04/25 04:44:10;;;;;;;;;;;12.20;99.90;;;;;;5091980;28;19992;-73
2022/04/25 04:46:35;;;;;;;;;;;12.30;99.90;;;;;;5073723;28;19920;-73
2022/04/25 04:49:01;;;;;;;;;;;12.40;99.90;;;;;;5091868;28;20347;-73
2022/04/25 04:51:26;;;;;;;;;;;12.50;99.90;;;;;;5092001;28;19916;-73
2022/04/25 04:53:52;;;;;;;;;;;12.40;99.90;;;;;;5091688;28;19912;-73
2022/04/25 04:56:17;;;;;;;;;;;12.50;99.90;;;;;;5073490;28;19972;-73
2022/04/25 04:58:43;;;;;;;;;;;12.60;99.90;;;;;;5073409;28;19908;-73
2022/04/25 05:01:08;;;;;;;;;;;12.60;99.90;;;;;;5091552;28;19928;-73
2022/04/25 05:03:34;;;;;;;;;;;12.60;99.90;;;;;;5091590;28;19942;-73
2022/04/25 05:06:00;;;;;;;;;;;12.70;99.90;;;;;;5091462;28;19973;-73
2022/04/25 05:08:25;;;;;;;;;;;12.70;99.90;;;;;;5091547;28;19909;-74
2022/04/25 05:10:53;;;;;;;;;;;12.80;99.90;;;;;;5072817;28;19917;-72
2022/04/25 05:13:20;;;;;;;;;;;12.80;99.90;;;;;;5091407;28;20391;-72
2022/04/25 05:15:46;;;;;;;;;;;12.90;99.90;;;;;;5091452;28;19916;-72
2022/04/25 05:18:12;;;;;;;;;;;13.00;99.90;;;;;;5073083;28;20284;-73
2022/04/25 05:20:37;;;;;;;;;;;13.20;99.90;;;;;;5091167;28;19935;-72
2022/04/25 05:23:03;;;;;;;;;;;13.30;99.90;;;;;;5091268;28;19909;-73
2022/04/25 05:25:28;;;;;;;;;;;13.30;99.90;;;;;;5091272;28;19931;-73
2022/04/25 05:27:55;;;;;;;;;;;13.30;99.90;;;;;;5091139;28;19931;-72
2022/04/25 05:30:21;;;;;;;;;;;13.30;99.90;;;;;;5091872;28;19912;-73
2022/04/25 05:32:48;;;;;;;;;;;13.20;99.90;;;;;;5077014;28;20294;-74
2022/04/25 05:35:17;;;;;;;;;;;13.30;99.90;;;;;;5077337;28;19909;-73
2022/04/25 05:37:43;;;;;;;;;;;13.30;99.90;;;;;;5095660;28;20382;-73
2022/04/25 05:40:09;;;;;;;;;;;13.50;99.90;;;;;;5095089;28;19916;-73
2022/04/25 05:42:35;;;;;;;;;;;13.60;99.90;;;;;;5095175;28;19915;-73
2022/04/25 05:45:01;;;;;;;;;;;13.60;99.90;;;;;;5095165;28;19934;-73
2022/04/25 05:47:27;;;;;;;;;;;13.60;99.90;;;;;;5076788;28;19923;-73
2022/04/25 05:52:37;;;;;;;;;;;14.00;99.90;;;;;;5079733;28;20428;-73
2022/04/25 05:55:03;;;;;;;;;;;14.20;99.90;;;;;;5094973;28;19908;-73
2022/04/25 05:57:28;;;;;;;;;;;14.30;99.90;;;;;;5094885;28;19913;-73
2022/04/25 05:59:54;;;;;;;;;;;14.40;99.90;;;;;;5094646;28;20263;-73
2022/04/25 06:02:19;;;;;;;;;;;14.40;99.90;;;;;;5095299;28;19916;-73
2022/04/25 06:04:45;;;;;;;;;;;14.40;99.90;;;;;;5094487;28;19908;-73
2022/04/25 06:07:11;;;;;;;;;;;14.50;99.90;;;;;;5094634;28;19920;-73
2022/04/25 06:09:37;;;;;;;;;;;14.50;99.90;;;;;;5094919;28;20379;-73
2022/04/25 06:12:02;;;;;;;;;;;14.50;99.90;;;;;;5076065;28;19975;-73
2022/04/25 06:14:31;;;;;;;;;;;14.70;99.90;;;;;;5094540;28;19908;-73
2022/04/25 06:16:59;;;;;;;;;;;14.70;99.90;;;;;;5076318;28;19970;-73
2022/04/25 06:19:25;;;;;;;;;;;14.80;99.90;;;;;;5094298;28;19908;-72
2022/04/25 06:21:51;;;;;;;;;;;14.90;99.90;;;;;;5094638;28;19916;-73
2022/04/25 06:24:16;;;;;;;;;;;15.00;99.90;;;;;;5094404;28;20490;-73
2022/04/25 06:26:42;;;;;;;;;;;15.10;99.90;;;;;;5076091;28;20318;-73
2022/04/25 06:29:07;;;;;;;;;;;15.20;99.90;;;;;;5094399;28;20281;-72
2022/04/25 06:31:33;;;;;;;;;;;15.40;99.90;;;;;;5094482;28;19957;-73
2022/04/25 06:33:58;;;;;;;;;;;15.50;99.90;;;;;;5076316;28;19912;-73
2022/04/25 06:36:24;;;;;;;;;;;15.60;99.90;;;;;;5094368;28;19926;-73
2022/04/25 06:38:50;;;;;;;;;;;15.60;99.90;;;;;;5094236;28;19951;-73
2022/04/25 06:41:15;;;;;;;;;;;15.80;99.90;;;;;;5075602;28;19927;-73
2022/04/25 06:43:41;;;;;;;;;;;15.80;99.90;;;;;;5074842;28;20238;-73
2022/04/25 06:46:06;;;;;;;;;;;15.90;99.90;;;;;;5093738;28;19924;-72
2022/04/25 06:48:32;;;;;;;;;;;16.00;99.90;;;;;;5093937;28;19961;-73
2022/04/25 06:50:57;;;;;;;;;;;16.20;99.90;;;;;;5094036;28;19916;-73
2022/04/25 06:53:24;;;;;;;;;;;16.30;99.90;;;;;;5093715;28;19934;-72
2022/04/25 06:55:49;;;;;;;;;;;16.30;99.90;;;;;;5075450;28;19916;-72
2022/04/25 06:58:15;;;;;;;;;;;16.50;99.90;;;;;;5093520;28;19923;-72
2022/04/25 07:00:41;;;;;;;;;;;16.60;99.90;;;;;;5093593;28;19920;-73
2022/04/25 07:03:06;;;;;;;;;;;16.70;99.90;;;;;;5075469;28;19919;-73
2022/04/25 07:05:32;;;;;;;;;;;16.80;99.90;;;;;;5075410;28;19916;-73
2022/04/25 07:07:58;;;;;;;;;;;17.00;99.90;;;;;;5093398;28;19908;-73
2022/04/25 07:10:23;;;;;;;;;;;17.20;99.90;;;;;;5093390;28;19952;-73
2022/04/25 07:12:49;;;;;;;;;;;17.20;99.90;;;;;;5093122;28;19966;-73
2022/04/25 07:15:15;;;;;;;;;;;17.60;99.90;;;;;;5093401;28;19912;-73
2022/04/25 07:17:40;;;;;;;;;;;17.60;99.90;;;;;;5093176;28;19944;-73
2022/04/25 07:20:06;;;;;;;;;;;17.70;99.90;;;;;;5093106;28;19920;-72
2022/04/25 07:30:44;;;;;;;;;;;17.90;99.90;;;;;;5093011;28;20003;-73
2022/04/25 07:33:09;;;;;;;;;;;17.90;99.90;;;;;;5074740;28;20014;-72
2022/04/25 07:35:36;;;;;;;;;;;18.00;99.90;;;;;;5093061;28;19966;-72
2022/04/25 07:38:02;;;;;;;;;;;18.20;99.90;;;;;;5092973;28;20422;-73
2022/04/25 07:40:28;;;;;;;;;;;18.30;99.90;;;;;;5093153;28;20270;-72
2022/04/25 07:42:57;;;;;;;;;;;18.20;99.90;;;;;;5093029;28;19909;-72
2022/04/25 07:45:23;;;;;;;;;;;18.10;99.90;;;;;;5074629;28;19967;-72
2022/04/25 07:47:48;;;;;;;;;;;18.00;99.90;;;;;;5092729;28;20399;-72
2022/04/25 07:50:15;;;;;;;;;;;18.10;99.90;;;;;;5092703;28;19916;-72
2022/04/25 07:52:41;;;;;;;;;;;18.00;99.90;;;;;;5092669;28;19908;-72
2022/04/25 07:55:07;;;;;;;;;;;17.90;99.90;;;;;;5074156;28;20003;-72
2022/04/25 07:57:33;;;;;;;;;;;18.00;99.90;;;;;;5092552;28;19912;-72
2022/04/25 07:59:58;;;;;;;;;;;18.10;99.90;;;;;;5092737;28;19923;-72
2022/04/25 08:02:24;;;;;;;;;;;18.20;99.90;;;;;;5092911;28;19916;-71
2022/04/25 08:04:49;;;;;;;;;;;18.30;99.90;;;;;;5092170;28;19915;-71
2022/04/25 08:07:15;;;;;;;;;;;18.40;99.90;;;;;;5092761;28;19924;-71
2022/04/25 08:09:41;;;;;;;;;;;18.60;99.90;;;;;;5092193;28;20351;-71
2022/04/25 08:20:19;;;;;;;;;;;19.20;99.90;;;;;;5092101;28;20034;-73
2022/04/25 08:22:45;;;;;;;;;;;19.40;99.90;;;;;;5092115;28;20366;-71
2022/04/25 08:25:11;;;;;;;;;;;19.60;99.90;;;;;;5091967;28;20285;-72
2022/04/25 08:27:37;;;;;;;;;;;19.70;99.90;;;;;;5091974;28;19908;-72
2022/04/25 08:30:02;;;;;;;;;;;19.90;99.90;;;;;;5091625;28;19908;-71
2022/04/25 08:32:28;;;;;;;;;;;20.00;99.90;;;;;;5073595;28;19931;-71
2022/04/25 08:34:54;;;;;;;;;;;20.10;99.90;;;;;;5091630;28;20391;-70
2022/04/25 08:37:20;;;;;;;;;;;20.30;99.90;;;;;;5073639;28;19920;-72
2022/04/25 08:39:45;;;;;;;;;;;20.60;99.90;;;;;;5091649;28;19912;-72
2022/04/25 08:42:11;;;;;;;;;;;20.90;99.90;;;;;;5091980;28;19916;-71
2022/04/25 08:44:37;;;;;;;;;;;21.20;99.90;;;;;;5073490;28;19908;-71
2022/04/25 08:47:02;;;;;;;;;;;21.50;99.90;;;;;;5092133;28;19916;-71
2022/04/25 08:49:28;;;;;;;;;;;21.50;99.90;;;;;;5073330;28;20267;-71
2022/04/25 08:51:58;;;;;;;;;;;21.30;99.90;;;;;;5091533;28;19923;-72
2022/04/25 08:54:31;;;;;;;;;;;21.10;99.90;;;;;;5073246;28;19915;-71
2022/04/25 08:56:57;;;;;;;;;;;21.10;99.90;;;;;;5091287;28;19927;-71
2022/04/25 08:59:23;;;;;;;;;;;21.20;99.90;;;;;;5091018;28;19916;-71
2022/04/25 09:01:49;;;;;;;;;;;21.50;99.90;;;;;;5091624;28;20007;-72
2022/04/25 09:04:14;;;;;;;;;;;21.60;99.80;;;;;;5073021;28;20006;-72
2022/04/25 09:06:40;;;;;;;;;;;22.10;99.30;;;;;;5091013;28;19916;-72
2022/04/25 09:09:06;;;;;;;;;;;22.20;98.70;;;;;;5091603;28;19988;-71
2022/04/25 09:14:16;;;;;;;;;;;22.00;98.70;;;;;;5091577;28;19955;-72
2022/04/25 09:16:42;;;;;;;;;;;21.60;99.30;;;;;;5092295;28;20817;-72
2022/04/25 09:19:07;;;;;;;;;;;21.00;99.90;;;;;;5073318;28;19955;-73
2022/04/25 09:21:43;;;;;;;;;;;20.60;99.90;;;;;;5091557;28;19930;-73
2022/04/25 09:24:20;;;;;;;;;;;20.30;99.90;;;;;;5091130;28;19958;-73
2022/04/25 09:26:46;;;;;;;;;;;20.20;99.90;;;;;;5072838;28;19916;-73
2022/04/25 09:29:12;;;;;;;;;;;20.10;99.90;;;;;;5091211;28;20038;-73
2022/04/25 09:31:46;;;;;;;;;;;19.90;99.90;;;;;;5091465;28;19916;-73
2022/04/25 09:34:15;;;;;;;;;;;19.80;99.90;;;;;;5091395;28;19988;-73
2022/04/25 09:36:48;;;;;;;;;;;19.70;99.90;;;;;;5091378;28;19913;-73
2022/04/25 09:39:30;;;;;;;;;;;19.70;99.90;;;;;;5073013;28;20401;-73
2022/04/25 09:41:56;;;;;;;;;;;19.70;99.90;;;;;;5073320;28;19923;-73
2022/04/25 09:44:23;;;;;;;;;;;19.70;99.90;;;;;;5072980;28;20480;-73
2022/04/25 09:46:49;;;;;;;;;;;19.70;99.90;;;;;;5091338;28;20032;-73
2022/04/25 09:49:20;;;;;;;;;;;19.60;99.90;;;;;;5091024;28;19998;-71
2022/04/25 09:52:01;;;;;;;;;;;19.50;99.90;;;;;;5091339;28;19919;-72
2022/04/25 09:54:27;;;;;;;;;;;19.60;99.90;;;;;;5090804;28;20360;-72
2022/04/25 09:56:52;;;;;;;;;;;19.60;99.90;;;;;;5072640;28;19918;-72
2022/04/25 09:59:25;;;;;;;;;;;19.50;99.90;;;;;;5091131;28;19912;-72
2022/04/25 10:02:01;;;;;;;;;;;19.50;99.90;;;;;;5072807;28;19924;-72
2022/04/25 10:04:38;;;;;;;;;;;19.40;99.90;;;;;;5090741;28;20223;-72
2022/04/25 10:07:05;;;;;;;;;;;19.40;99.90;;;;;;5091396;28;20430;-73
2022/04/25 10:09:31;;;;;;;;;;;19.40;99.90;;;;;;5091209;28;20005;-72
2022/04/25 10:11:58;;;;;;;;;;;19.20;99.90;;;;;;5090898;28;19962;-72
2022/04/25 10:14:25;;;;;;;;;;;19.30;99.90;;;;;;5072733;28;20352;-73
2022/04/25 10:16:50;;;;;;;;;;;19.20;99.90;;;;;;5091344;28;19916;-72
2022/04/25 10:19:16;;;;;;;;;;;19.10;99.90;;;;;;5094418;28;19914;-72
2022/04/25 10:21:41;;;;;;;;;;;19.00;99.90;;;;;;5094512;28;20252;-73
2022/04/25 10:24:07;;;;;;;;;;;19.00;99.90;;;;;;5094615;28;19961;-73
2022/04/25 10:26:33;;;;;;;;;;;19.00;99.90;;;;;;5076238;28;20398;-73
2022/04/25 10:29:10;;;;;;;;;;;18.90;99.90;;;;;;5094393;28;19978;-72
2022/04/25 10:31:41;;;;;;;;;;;18.80;99.90;;;;;;5094529;28;19927;-72
2022/04/25 10:34:07;;;;;;;;;;;18.60;99.90;;;;;;5076170;28;19912;-72
2022/04/25 10:36:36;;;;;;;;;;;18.80;99.90;;;;;;5094613;28;19970;-72
2022/04/25 10:39:13;;;;;;;;;;;19.00;99.90;;;;;;5094452;28;19937;-72
2022/04/25 10:44:25;;;;;;;;;;;19.10;99.90;;;;;;5094275;28;19963;-71
2022/04/25 10:47:06;;;;;;;;;;;19.20;99.90;;;;;;5075831;28;19956;-72
2022/04/25 10:49:47;;;;;;;;;;;19.20;99.90;;;;;;5094087;28;19908;-72
2022/04/25 10:52:32;;;;;;;;;;;19.40;99.90;;;;;;5075951;28;19916;-72
2022/04/25 10:55:14;;;;;;;;;;;19.40;99.90;;;;;;5093820;28;19912;-72
2022/04/25 10:57:58;;;;;;;;;;;19.40;99.90;;;;;;5094013;28;19931;-72
2022/04/25 11:00:44;;;;;;;;;;;19.30;99.90;;;;;;5075625;28;19920;-72
2022/04/25 11:03:09;;;;;;;;;;;19.30;99.90;;;;;;5093957;28;20289;-72
2022/04/25 11:05:36;;;;;;;;;;;19.40;99.90;;;;;;5075499;28;19916;-72
2022/04/25 11:08:20;;;;;;;;;;;19.50;99.90;;;;;;5092909;28;19909;-71
2022/04/25 11:10:49;;;;;;;;;;;19.50;99.90;;;;;;5093068;28;19961;-72
2022/04/25 11:13:18;;;;;;;;;;;19.60;99.90;;;;;;5093526;28;19977;-72
2022/04/25 11:15:46;;;;;;;;;;;19.60;99.90;;;;;;5093614;28;19952;-72
2022/04/25 11:18:34;;;;;;;;;;;19.70;99.90;;;;;;5075239;28;19915;-72
2022/04/25 11:21:20;;;;;;;;;;;19.90;99.90;;;;;;5093539;28;19942;-72
2022/04/25 11:23:49;;;;;;;;;;;20.10;99.90;;;;;;5093522;28;19908;-71
2022/04/25 11:26:21;;;;;;;;;;;20.30;99.90;;;;;;5093469;28;19966;-72
2022/04/25 11:29:01;;;;;;;;;;;20.40;99.90;;;;;;5092730;28;19909;-72
2022/04/25 11:31:27;;;;;;;;;;;20.40;99.90;;;;;;5075000;28;19916;-72
2022/04/25 11:33:53;;;;;;;;;;;20.50;99.90;;;;;;5092924;28;19944;-72
2022/04/25 11:36:19;;;;;;;;;;;20.60;99.90;;;;;;5092779;28;20437;-72
2022/04/25 11:41:31;;;;;;;;;;;20.50;99.90;;;;;;5092968;28;19942;-72
2022/04/25 11:43:59;;;;;;;;;;;20.30;99.90;;;;;;5092799;28;19918;-72
2022/04/25 11:46:25;;;;;;;;;;;20.10;99.90;;;;;;5092997;28;20015;-72
2022/04/25 11:48:51;;;;;;;;;;;20.00;99.90;;;;;;5092578;28;20340;-73
2022/04/25 11:51:30;;;;;;;;;;;19.80;99.90;;;;;;5093014;28;20370;-73
2022/04/25 11:53:58;;;;;;;;;;;19.70;99.90;;;;;;5093228;28;20422;-72
2022/04/25 11:56:24;;;;;;;;;;;19.70;99.90;;;;;;5093126;28;19916;-73
2022/04/25 11:58:50;;;;;;;;;;;19.70;99.90;;;;;;5092656;28;19916;-72
2022/04/25 12:01:30;;;;;;;;;;;19.90;99.90;;;;;;5092523;28;19927;-73
2022/04/25 12:04:15;;;;;;;;;;;19.90;99.90;;;;;;5092798;28;19916;-72
2022/04/25 12:06:54;;;;;;;;;;;19.90;99.90;;;;;;5092667;28;20276;-72
2022/04/25 12:17:42;;;;;;;;;;;20.60;99.90;;;;;;5092643;28;19924;-72
2022/04/25 12:20:09;;;;;;;;;;;20.80;99.90;;;;;;5091996;28;19916;-72
2022/04/25 12:22:36;;;;;;;;;;;20.80;99.90;;;;;;5091933;28;19908;-72
2022/04/25 12:25:17;;;;;;;;;;;20.70;99.90;;;;;;5092442;28;20003;-72
2022/04/25 12:28:01;;;;;;;;;;;20.70;99.90;;;;;;5093337;28;19985;-72
2022/04/25 12:30:28;;;;;;;;;;;20.50;99.90;;;;;;5092207;28;19916;-72
2022/04/25 12:33:10;;;;;;;;;;;20.50;99.90;;;;;;5091687;28;19908;-72
2022/04/25 12:35:35;;;;;;;;;;;20.40;99.90;;;;;;5091996;28;19970;-72
2022/04/25 12:38:02;;;;;;;;;;;20.30;99.90;;;;;;5091933;28;19954;-73
2022/04/25 12:40:27;;;;;;;;;;;20.30;99.90;;;;;;5091378;28;19927;-72
2022/04/25 12:42:54;;;;;;;;;;;20.30;99.90;;;;;;5091943;28;19911;-72
2022/04/25 12:45:23;;;;;;;;;;;20.40;99.90;;;;;;5073846;28;19912;-73
2022/04/25 12:47:56;;;;;;;;;;;20.40;99.90;;;;;;5091639;28;19961;-72
2022/04/25 12:50:40;;;;;;;;;;;20.50;99.90;;;;;;5092017;28;20356;-72
2022/04/25 12:53:07;;;;;;;;;;;20.70;99.90;;;;;;5091714;28;19909;-72
2022/04/25 12:55:43;;;;;;;;;;;20.80;99.90;;;;;;5091681;28;19916;-72
2022/04/25 12:58:08;;;;;;;;;;;20.90;99.90;;;;;;5091406;28;19908;-72
2022/04/25 13:00:41;;;;;;;;;;;20.90;99.90;;;;;;5091323;28;19927;-72
2022/04/25 13:03:06;;;;;;;;;;;20.90;99.90;;;;;;5091325;28;20253;-72
2022/04/25 13:05:32;;;;;;;;;;;20.80;99.90;;;;;;5091377;28;19922;-72
2022/04/25 13:07:57;;;;;;;;;;;20.90;99.90;;;;;;5091254;28;19908;-72
2022/04/25 13:10:24;;;;;;;;;;;20.70;99.90;;;;;;5091360;28;19962;-72
2022/04/25 13:12:52;;;;;;;;;;;20.80;99.90;;;;;;5090757;28;19924;-72
2022/04/25 13:15:31;;;;;;;;;;;20.70;99.90;;;;;;5091112;28;19915;-72
2022/04/25 13:17:56;;;;;;;;;;;20.70;99.90;;;;;;5091028;28;19912;-72
2022/04/25 13:20:24;;;;;;;;;;;20.50;99.90;;;;;;5091054;28;20399;-73
2022/04/25 13:22:50;;;;;;;;;;;20.40;99.90;;;;;;5091266;28;19947;-73
2022/04/25 13:25:20;;;;;;;;;;;20.40;99.90;;;;;;5090974;28;19962;-73
2022/04/25 13:27:45;;;;;;;;;;;20.40;99.90;;;;;;5090852;28;19915;-72
2022/04/25 13:30:12;;;;;;;;;;;20.40;99.90;;;;;;5091024;28;19908;-72
2022/04/25 13:32:38;;;;;;;;;;;20.30;99.90;;;;;;5091038;28;19912;-72
2022/04/25 13:35:04;;;;;;;;;;;20.30;99.90;;;;;;5090872;28;19909;-72
2022/04/25 13:37:30;;;;;;;;;;;20.40;99.90;;;;;;5091136;28;19935;-73
2022/04/25 13:39:56;;;;;;;;;;;20.30;99.90;;;;;;5072960;28;19952;-72
2022/04/25 13:42:22;;;;;;;;;;;20.40;99.90;;;;;;5091734;28;19916;-73
2022/04/25 13:44:47;;;;;;;;;;;20.30;99.90;;;;;;5091150;28;19915;-73
2022/04/25 13:47:13;;;;;;;;;;;20.20;99.90;;;;;;5091670;28;19923;-72
2022/04/25 13:49:38;;;;;;;;;;;20.20;99.90;;;;;;5091094;28;19908;-73
2022/04/25 13:52:04;;;;;;;;;;;20.10;99.90;;;;;;5093472;28;19916;-73
2022/04/25 13:54:30;;;;;;;;;;;20.10;99.90;;;;;;5095308;28;19912;-73
2022/04/25 13:56:55;;;;;;;;;;;20.20;99.90;;;;;;5095591;28;19920;-73
2022/04/25 13:59:21;;;;;;;;;;;20.10;99.90;;;;;;5095305;28;20025;-73
2022/04/25 14:01:47;;;;;;;;;;;20.00;99.90;;;;;;5095190;28;19923;-73
2022/04/25 14:04:12;;;;;;;;;;;20.00;99.90;;;;;;5094945;28;20256;-72
2022/04/25 14:06:38;;;;;;;;;;;19.90;99.90;;;;;;5095170;28;19959;-72
2022/04/25 14:09:04;;;;;;;;;;;19.90;99.90;;;;;;5076516;28;20367;-73
2022/04/25 14:11:30;;;;;;;;;;;19.80;99.90;;;;;;5094803;28;20380;-72
2022/04/25 14:13:59;;;;;;;;;;;19.70;99.90;;;;;;5076332;28;20017;-73
2022/04/25 14:16:25;;;;;;;;;;;19.70;99.90;;;;;;5094419;28;19930;-72
2022/04/25 14:18:51;;;;;;;;;;;19.70;99.90;;;;;;5094379;28;19908;-73
2022/04/25 14:21:17;;;;;;;;;;;19.70;99.90;;;;;;5094806;28;19927;-73
2022/04/25 14:23:43;;;;;;;;;;;19.70;99.90;;;;;;5076143;28;20410;-72
2022/04/25 14:26:09;;;;;;;;;;;19.80;99.90;;;;;;5094624;28;19970;-72
2022/04/25 14:28:35;;;;;;;;;;;19.80;99.90;;;;;;5094605;28;19940;-72
2022/04/25 14:31:00;;;;;;;;;;;19.80;99.90;;;;;;5094300;28;19979;-71
2022/04/25 14:33:26;;;;;;;;;;;19.70;99.90;;;;;;5094450;28;19914;-72
2022/04/25 14:35:53;;;;;;;;;;;19.70;99.90;;;;;;5076252;28;20268;-72
2022/04/25 14:38:22;;;;;;;;;;;19.70;99.90;;;;;;5094350;28;20054;-72
2022/04/25 14:40:55;;;;;;;;;;;19.60;99.90;;;;;;5094157;28;20394;-72
2022/04/25 14:43:20;;;;;;;;;;;19.60;99.90;;;;;;5094248;28;19916;-72
2022/04/25 14:45:47;;;;;;;;;;;19.60;99.90;;;;;;5094088;28;20386;-73
2022/04/25 14:48:13;;;;;;;;;;;19.60;99.90;;;;;;5075938;28;20272;-72
2022/04/25 14:56:26;;;;;;;;;;;19.50;99.90;;;;;;5011736;28;20393;-73
2022/04/25 14:58:55;;;;;;;;;;;19.50;99.90;;;;;;5076637;28;19908;-73
2022/04/25 15:01:21;;;;;;;;;;;19.50;99.90;;;;;;5075661;28;19916;-73
2022/04/25 15:03:47;;;;;;;;;;;19.50;99.90;;;;;;5092808;28;19930;-73
2022/04/25 15:06:15;;;;;;;;;;;19.60;99.90;;;;;;5075603;28;19923;-73